Time;durP1;ratioP1;P1;durP2;ratioP2;P2;SDS_P1;SDS_P2;PMS_P1;PMS_P2;Temp;Humidity;BMP_temperature;BMP_pressure;BME280_temperature;BME280_humidity;BME280_pressure;Samples;Min_cycle;Max_cycle;Signal;HPM_P1;HPM_P2
2022/03/22 00:01:14;;;;;;;15.20;10.13;;;7.40;43.70;;;;;;5017939;28;20233;-67
2022/03/22 00:03:40;;;;;;;15.20;10.33;;;7.40;43.60;;;;;;5015936;28;20211;-68
2022/03/22 00:06:06;;;;;;;16.90;9.67;;;7.30;43.70;;;;;;5021241;28;20203;-70
2022/03/22 00:08:32;;;;;;;17.30;10.43;;;7.30;43.40;;;;;;5016274;28;20670;-69
2022/03/22 00:10:58;;;;;;;13.30;9.23;;;7.30;43.30;;;;;;5017838;28;20654;-69
2022/03/22 00:13:25;;;;;;;15.27;10.90;;;7.30;43.70;;;;;;5017275;28;20207;-69
2022/03/22 00:15:52;;;;;;;12.13;9.10;;;7.20;43.60;;;;;;5018452;28;20201;-69
2022/03/22 00:18:19;;;;;;;11.20;8.93;;;7.30;43.50;;;;;;5013536;28;20212;-70
2022/03/22 00:20:44;;;;;;;16.17;9.53;;;7.20;43.70;;;;;;5018832;28;20206;-69
2022/03/22 00:23:10;;;;;;;14.07;9.53;;;7.20;43.90;;;;;;5008517;28;20232;-69
2022/03/22 00:25:35;;;;;;;13.47;9.10;;;7.10;44.10;;;;;;4996638;28;20236;-70
2022/03/22 00:28:01;;;;;;;14.03;9.73;;;7.20;44.20;;;;;;5010203;28;20222;-69
2022/03/22 00:30:32;;;;;;;13.60;9.63;;;7.00;44.40;;;;;;5011317;28;20197;-71
2022/03/22 00:33:01;;;;;;;12.00;9.77;;;7.00;44.70;;;;;;5014012;28;20193;-69
2022/03/22 00:35:29;;;;;;;16.40;10.30;;;6.90;44.60;;;;;;5008954;28;20185;-69
2022/03/22 00:37:57;;;;;;;10.90;9.87;;;6.90;44.80;;;;;;5014449;28;20207;-77
2022/03/22 00:40:28;;;;;;;12.50;9.67;;;6.90;45.60;;;;;;5012437;28;20588;-78
2022/03/22 00:42:54;;;;;;;14.07;10.00;;;6.80;45.00;;;;;;5016118;28;20290;-75
2022/03/22 00:45:22;;;;;;;15.07;10.37;;;6.70;45.30;;;;;;5016606;28;20562;-71
2022/03/22 00:47:50;;;;;;;17.47;9.83;;;6.60;45.30;;;;;;5011718;28;20241;-69
2022/03/22 00:50:19;;;;;;;12.10;9.27;;;6.60;45.40;;;;;;5014915;28;20884;-69
2022/03/22 00:52:46;;;;;;;12.80;10.10;;;6.50;45.60;;;;;;5019715;28;20217;-70
2022/03/22 00:55:12;;;;;;;15.73;10.03;;;6.50;45.80;;;;;;4995328;28;20205;-71
2022/03/22 00:57:39;;;;;;;14.80;10.60;;;6.50;45.60;;;;;;5017541;28;20279;-69
2022/03/22 01:00:08;;;;;;;12.20;9.23;;;6.50;45.40;;;;;;5011640;28;20203;-69
2022/03/22 01:02:38;;;;;;;15.87;10.30;;;6.40;45.70;;;;;;5019493;28;20203;-70
2022/03/22 01:05:07;;;;;;;14.97;10.13;;;6.50;45.40;;;;;;5006787;28;20196;-70
2022/03/22 01:07:34;;;;;;;10.83;8.40;;;6.40;45.20;;;;;;5013947;28;20683;-71
2022/03/22 01:10:01;;;;;;;11.97;9.67;;;6.50;45.50;;;;;;5021248;28;20203;-71
2022/03/22 01:12:27;;;;;;;17.80;10.23;;;6.50;45.40;;;;;;4995726;28;20206;-71
2022/03/22 01:14:52;;;;;;;16.87;10.20;;;6.50;45.50;;;;;;5016793;28;20183;-71
2022/03/22 01:17:18;;;;;;;16.10;10.10;;;6.50;45.10;;;;;;5015020;28;20223;-72
2022/03/22 01:19:44;;;;;;;17.93;10.33;;;6.50;45.40;;;;;;5020327;28;20239;-69
2022/03/22 01:22:10;;;;;;;13.47;9.37;;;6.50;45.30;;;;;;5013955;28;20208;-69
2022/03/22 01:24:35;;;;;;;10.93;8.47;;;6.40;45.40;;;;;;5010519;28;20532;-69
2022/03/22 01:27:01;;;;;;;15.07;9.67;;;6.40;45.40;;;;;;5015268;28;20706;-68
2022/03/22 01:29:28;;;;;;;14.07;10.00;;;6.30;45.50;;;;;;5016221;28;20542;-68
2022/03/22 01:31:55;;;;;;;13.53;9.40;;;6.40;45.60;;;;;;5011597;28;20204;-68
2022/03/22 01:34:20;;;;;;;13.37;10.23;;;6.40;45.60;;;;;;5015340;28;20184;-67
2022/03/22 01:36:46;;;;;;;14.20;9.33;;;6.40;45.80;;;;;;5016745;28;20691;-71
2022/03/22 01:39:11;;;;;;;13.00;8.97;;;6.40;46.00;;;;;;5018538;28;20687;-67
2022/03/22 01:41:37;;;;;;;14.50;10.10;;;6.40;46.30;;;;;;5017531;28;20210;-69
2022/03/22 01:44:03;;;;;;;12.63;9.60;;;6.40;46.10;;;;;;5023547;28;20202;-72
2022/03/22 01:46:29;;;;;;;12.77;8.53;;;6.40;46.20;;;;;;5016180;28;20207;-70
2022/03/22 01:48:55;;;;;;;13.63;9.83;;;6.40;46.50;;;;;;5016505;28;20253;-70
2022/03/22 01:51:22;;;;;;;13.47;9.83;;;6.40;46.20;;;;;;5016093;28;20200;-71
2022/03/22 01:53:48;;;;;;;17.60;9.37;;;6.30;46.20;;;;;;5020070;28;20207;-70
2022/03/22 01:56:14;;;;;;;14.00;9.70;;;6.30;46.40;;;;;;5015742;28;20200;-68
2022/03/22 01:58:40;;;;;;;16.07;9.67;;;6.30;46.80;;;;;;5018794;28;20821;-68
2022/03/22 02:06:36;;;;;;;12.77;10.37;;;6.20;47.10;;;;;;5025498;28;20620;-70
2022/03/22 02:09:03;;;;;;;13.47;9.23;;;6.20;47.40;;;;;;5023849;28;20264;-68
2022/03/22 02:11:28;;;;;;;14.93;10.43;;;6.00;47.60;;;;;;5022829;28;20196;-68
2022/03/22 02:13:55;;;;;;;13.20;9.03;;;6.00;47.60;;;;;;5022532;28;20187;-71
2022/03/22 02:16:22;;;;;;;12.90;11.10;;;5.90;47.90;;;;;;5018115;28;20204;-69
2022/03/22 02:18:50;;;;;;;12.23;9.87;;;6.00;47.80;;;;;;5021810;28;20219;-68
2022/03/22 02:21:16;;;;;;;13.00;9.70;;;5.90;47.90;;;;;;5023500;28;20411;-67
2022/03/22 02:23:53;;;;;;;13.47;9.93;;;5.80;48.20;;;;;;5026472;28;20763;-72
2022/03/22 02:26:20;;;;;;;15.40;10.03;;;5.70;48.10;;;;;;5019884;28;20777;-69
2022/03/22 02:28:46;;;;;;;18.90;9.40;;;5.60;48.30;;;;;;5015742;28;20208;-73
2022/03/22 02:31:13;;;;;;;14.47;10.60;;;5.70;48.40;;;;;;5012478;28;20199;-71
2022/03/22 02:33:43;;;;;;;11.40;9.57;;;5.80;48.40;;;;;;5013978;28;20268;-69
2022/03/22 02:36:09;;;;;;;14.23;10.17;;;5.80;48.40;;;;;;5015534;28;20220;-67
2022/03/22 02:38:35;;;;;;;12.80;9.80;;;5.90;48.70;;;;;;5013771;28;20180;-72
2022/03/22 02:41:01;;;;;;;12.10;9.70;;;5.90;48.40;;;;;;5016535;28;20231;-70
2022/03/22 02:43:27;;;;;;;13.27;10.27;;;6.10;47.90;;;;;;5017076;28;20661;-74
2022/03/22 02:45:52;;;;;;;15.80;11.07;;;6.00;47.80;;;;;;5018097;28;20209;-69
2022/03/22 02:48:18;;;;;;;16.07;10.33;;;5.90;48.00;;;;;;5020294;28;20200;-70
2022/03/22 02:50:44;;;;;;;12.87;9.63;;;6.00;48.20;;;;;;5016904;28;20472;-70
2022/03/22 02:53:09;;;;;;;18.17;10.63;;;5.80;48.20;;;;;;5018535;28;20199;-70
2022/03/22 02:55:36;;;;;;;15.67;10.43;;;5.80;48.20;;;;;;5015264;28;20604;-71
2022/03/22 02:58:02;;;;;;;15.10;10.63;;;5.70;48.30;;;;;;5020165;28;20515;-71
2022/03/22 03:00:28;;;;;;;12.47;9.97;;;5.70;48.40;;;;;;5013709;28;20194;-72
2022/03/22 03:02:54;;;;;;;17.87;10.27;;;5.70;48.40;;;;;;5018856;28;20635;-68
2022/03/22 03:05:20;;;;;;;14.70;10.80;;;5.70;48.50;;;;;;5018702;28;20234;-71
2022/03/22 03:07:47;;;;;;;14.77;10.27;;;5.50;48.90;;;;;;5007556;28;20303;-69
2022/03/22 03:10:13;;;;;;;18.33;10.27;;;5.50;49.00;;;;;;5011219;28;20239;-69
2022/03/22 03:12:39;;;;;;;15.67;10.17;;;5.60;48.90;;;;;;5010369;28;20204;-81
2022/03/22 03:15:07;;;;;;;21.87;9.70;;;5.50;48.90;;;;;;5010213;28;20192;-69
2022/03/22 03:17:33;;;;;;;15.57;10.40;;;5.50;48.80;;;;;;5007097;28;20579;-68
2022/03/22 03:19:59;;;;;;;14.50;11.17;;;5.40;49.10;;;;;;5016863;28;20196;-69
2022/03/22 03:22:24;;;;;;;13.10;10.33;;;5.40;49.40;;;;;;5012472;28;20237;-70
2022/03/22 03:24:50;;;;;;;12.97;10.03;;;5.50;49.00;;;;;;5015709;28;20238;-69
2022/03/22 03:27:16;;;;;;;15.27;10.07;;;5.30;48.90;;;;;;5005393;28;20208;-69
2022/03/22 03:29:42;;;;;;;12.73;9.87;;;5.50;49.10;;;;;;5009804;28;20296;-69
2022/03/22 03:32:08;;;;;;;12.67;10.07;;;5.60;49.10;;;;;;5004965;28;20662;-69
2022/03/22 03:34:33;;;;;;;14.47;10.83;;;5.50;49.10;;;;;;5011407;28;20188;-70
2022/03/22 03:36:59;;;;;;;21.57;10.53;;;5.40;49.20;;;;;;5014590;28;20257;-68
2022/03/22 03:39:24;;;;;;;15.93;9.20;;;5.50;48.90;;;;;;5013772;28;20212;-69
2022/03/22 03:42:01;;;;;;;17.03;9.93;;;5.30;48.80;;;;;;5014349;28;20188;-70
2022/03/22 03:47:18;;;;;;;13.47;9.77;;;5.30;49.30;;;;;;5013218;28;20198;-68
2022/03/22 03:49:46;;;;;;;13.87;10.50;;;5.30;48.70;;;;;;5010007;28;20658;-69
2022/03/22 03:52:17;;;;;;;15.63;10.03;;;5.20;49.10;;;;;;5011412;28;20230;-69
2022/03/22 03:54:43;;;;;;;15.40;10.83;;;5.10;49.40;;;;;;5014241;28;20184;-72
2022/03/22 03:57:10;;;;;;;20.53;10.47;;;5.00;49.70;;;;;;5014290;28;20203;-72
2022/03/22 03:59:37;;;;;;;13.20;10.00;;;5.00;50.00;;;;;;5016616;28;20565;-72
2022/03/22 04:02:03;;;;;;;16.47;10.73;;;4.90;50.30;;;;;;5012630;28;20286;-70
2022/03/22 04:04:29;;;;;;;13.60;10.53;;;4.80;50.50;;;;;;4995591;28;20192;-72
2022/03/22 04:06:55;;;;;;;13.00;9.63;;;4.80;50.40;;;;;;4998079;28;20310;-69
2022/03/22 04:09:20;;;;;;;19.90;11.03;;;4.90;50.50;;;;;;5013696;28;20215;-70
2022/03/22 04:11:46;;;;;;;14.07;10.43;;;4.90;50.30;;;;;;5015551;28;20191;-70
2022/03/22 04:14:12;;;;;;;18.17;10.53;;;5.00;50.00;;;;;;5016402;28;20195;-71
2022/03/22 04:16:38;;;;;;;14.37;10.63;;;5.00;50.30;;;;;;5012626;28;20208;-72
2022/03/22 04:19:05;;;;;;;18.57;10.93;;;5.00;50.20;;;;;;5014402;28;20191;-71
2022/03/22 04:21:31;;;;;;;15.90;10.27;;;5.00;50.70;;;;;;5017115;28;20257;-72
2022/03/22 04:23:59;;;;;;;14.23;9.83;;;4.90;50.50;;;;;;5016465;28;20226;-72
2022/03/22 04:26:25;;;;;;;14.23;11.40;;;4.90;50.50;;;;;;5020412;28;20266;-71
2022/03/22 04:34:19;;;;;;;14.90;10.73;;;4.90;50.40;;;;;;5019904;28;20359;-72
2022/03/22 04:36:46;;;;;;;15.93;10.87;;;4.80;51.10;;;;;;5018697;28;20671;-71
2022/03/22 04:39:11;;;;;;;17.23;11.10;;;4.90;50.60;;;;;;5014542;28;20278;-72
2022/03/22 04:41:37;;;;;;;13.93;9.90;;;4.90;50.40;;;;;;5016489;28;20306;-72
2022/03/22 04:44:02;;;;;;;16.97;11.00;;;4.80;50.30;;;;;;5022518;28;20184;-72
2022/03/22 04:46:28;;;;;;;17.17;10.87;;;4.80;50.40;;;;;;5004052;28;20511;-73
2022/03/22 04:48:53;;;;;;;18.00;10.73;;;4.80;50.70;;;;;;5016482;28;20732;-73
2022/03/22 04:56:47;;;;;;;15.60;10.73;;;4.60;51.40;;;;;;5014178;28;20246;-72
2022/03/22 04:59:15;;;;;;;15.03;10.60;;;4.50;51.20;;;;;;5014696;28;20834;-72
2022/03/22 05:01:45;;;;;;;14.37;10.57;;;4.60;51.00;;;;;;5006389;28;20192;-72
2022/03/22 05:04:11;;;;;;;17.93;10.27;;;4.60;51.00;;;;;;5013398;28;20258;-72
2022/03/22 05:06:40;;;;;;;13.80;9.87;;;4.60;51.10;;;;;;5015802;28;20204;-71
2022/03/22 05:09:06;;;;;;;12.10;9.93;;;4.60;50.80;;;;;;5025420;28;20235;-71
2022/03/22 05:11:31;;;;;;;18.80;11.37;;;4.70;50.70;;;;;;5006949;28;20722;-70
2022/03/22 05:13:58;;;;;;;15.00;11.17;;;4.70;50.70;;;;;;5027906;28;20159;-71
2022/03/22 05:16:26;;;;;;;14.00;11.07;;;4.80;50.90;;;;;;5010761;28;20192;-70
2022/03/22 05:18:53;;;;;;;17.37;10.93;;;4.70;51.00;;;;;;5021784;28;20724;-71
2022/03/22 05:21:19;;;;;;;16.43;10.73;;;4.70;51.10;;;;;;5021198;28;20191;-71
2022/03/22 05:23:45;;;;;;;17.63;11.17;;;4.60;50.90;;;;;;5015534;28;20268;-71
2022/03/22 05:26:12;;;;;;;16.03;11.07;;;4.70;50.80;;;;;;5013984;28;20271;-70
2022/03/22 05:28:38;;;;;;;14.73;9.97;;;4.70;50.60;;;;;;5014982;28;20724;-70
2022/03/22 05:31:05;;;;;;;12.83;10.47;;;4.70;50.30;;;;;;5021110;28;20191;-71
2022/03/22 05:33:30;;;;;;;16.13;11.13;;;4.70;50.70;;;;;;5019219;28;20213;-71
2022/03/22 05:35:56;;;;;;;16.13;11.23;;;4.60;50.80;;;;;;5012487;28;20191;-69
2022/03/22 05:38:24;;;;;;;29.07;11.50;;;4.60;51.40;;;;;;5018437;28;20211;-69
2022/03/22 05:40:51;;;;;;;14.73;10.20;;;4.50;51.00;;;;;;5025343;28;20667;-69
2022/03/22 05:43:17;;;;;;;16.80;11.17;;;4.60;51.70;;;;;;5012212;28;20274;-69
2022/03/22 05:45:48;;;;;;;16.07;10.93;;;4.60;51.10;;;;;;5020416;28;20214;-69
2022/03/22 05:48:18;;;;;;;16.57;11.30;;;4.60;51.30;;;;;;5014462;28;20577;-70
2022/03/22 05:50:44;;;;;;;16.83;10.43;;;4.60;50.90;;;;;;5020543;28;20222;-70
2022/03/22 05:53:12;;;;;;;14.30;11.17;;;4.50;51.10;;;;;;5009957;28;20281;-71
2022/03/22 05:55:38;;;;;;;13.43;10.63;;;4.60;50.80;;;;;;5016801;28;20869;-72
2022/03/22 05:58:04;;;;;;;16.57;11.23;;;4.80;50.70;;;;;;5016417;28;20481;-71
2022/03/22 06:00:30;;;;;;;14.23;10.27;;;4.70;50.90;;;;;;5023184;28;20207;-71
2022/03/22 06:02:56;;;;;;;15.37;11.17;;;4.80;51.00;;;;;;5015379;28;20522;-73
2022/03/22 06:05:21;;;;;;;15.83;11.43;;;4.70;50.50;;;;;;5018080;28;20199;-72
2022/03/22 06:07:47;;;;;;;15.83;10.43;;;4.60;50.80;;;;;;5010441;28;20230;-71
2022/03/22 06:10:14;;;;;;;19.43;11.90;;;4.60;51.10;;;;;;5027413;28;20731;-71
2022/03/22 06:12:41;;;;;;;18.33;11.47;;;4.70;51.00;;;;;;5009615;28;20816;-69
2022/03/22 06:15:15;;;;;;;16.73;11.53;;;4.80;50.60;;;;;;5014601;28;20200;-68
2022/03/22 06:17:50;;;;;;;16.83;11.87;;;4.80;50.50;;;;;;5018146;28;20196;-68
2022/03/22 06:20:23;;;;;;;15.23;10.43;;;4.80;50.30;;;;;;5017622;28;20560;-68
2022/03/22 06:22:49;;;;;;;16.90;11.30;;;5.10;49.90;;;;;;5015249;28;20204;-71
2022/03/22 06:25:16;;;;;;;16.23;10.73;;;5.00;50.10;;;;;;5015631;28;20230;-72
2022/03/22 06:27:44;;;;;;;16.83;10.83;;;5.10;49.50;;;;;;4999171;28;20226;-71
2022/03/22 06:30:11;;;;;;;16.53;10.30;;;5.10;49.70;;;;;;5024471;28;20432;-72
2022/03/22 06:32:42;;;;;;;15.43;10.37;;;5.10;49.40;;;;;;4987519;28;20223;-71
2022/03/22 06:35:10;;;;;;;20.00;11.63;;;5.30;49.00;;;;;;5011765;28;20194;-71
2022/03/22 06:37:36;;;;;;;15.10;11.03;;;5.30;48.80;;;;;;5015769;28;20203;-70
2022/03/22 06:40:02;;;;;;;18.60;10.83;;;5.50;48.60;;;;;;5022598;28;20457;-71
2022/03/22 06:42:28;;;;;;;18.43;11.67;;;5.50;48.50;;;;;;5015996;28;20250;-71
2022/03/22 06:44:53;;;;;;;14.97;11.43;;;5.50;48.20;;;;;;5018920;28;20682;-71
2022/03/22 06:47:19;;;;;;;21.07;12.50;;;5.60;48.10;;;;;;5007691;28;20219;-71
2022/03/22 06:49:44;;;;;;;13.03;10.23;;;5.60;48.40;;;;;;5006112;28;20992;-71
2022/03/22 06:52:10;;;;;;;14.17;10.87;;;5.70;48.30;;;;;;5014901;28;20753;-71
2022/03/22 06:54:36;;;;;;;19.43;11.80;;;5.70;48.10;;;;;;5011280;28;20635;-71
2022/03/22 06:57:01;;;;;;;27.90;11.87;;;5.80;47.90;;;;;;5005672;28;20251;-71
2022/03/22 06:59:27;;;;;;;17.33;13.20;;;5.80;48.00;;;;;;5018604;28;20210;-71
2022/03/22 07:01:52;;;;;;;17.13;12.53;;;5.90;48.00;;;;;;5008010;28;20188;-70
2022/03/22 07:04:18;;;;;;;15.57;11.53;;;6.10;47.30;;;;;;5010490;28;20203;-71
2022/03/22 07:06:45;;;;;;;17.73;10.50;;;6.00;47.00;;;;;;5009293;28;20733;-71
2022/03/22 07:09:11;;;;;;;16.23;12.47;;;6.00;46.90;;;;;;5011490;28;20216;-70
2022/03/22 07:11:52;;;;;;;16.17;11.67;;;5.90;46.70;;;;;;5010118;28;20195;-70
2022/03/22 07:14:19;;;;;;;12.43;10.33;;;6.00;46.50;;;;;;5010581;28;20200;-70
2022/03/22 07:16:48;;;;;;;14.87;11.10;;;6.20;46.90;;;;;;5012658;28;20529;-71
2022/03/22 07:19:14;;;;;;;15.43;11.47;;;6.40;46.20;;;;;;5005399;28;20200;-71
2022/03/22 07:21:41;;;;;;;18.60;10.87;;;6.50;46.70;;;;;;5009480;28;20203;-71
2022/03/22 07:24:07;;;;;;;15.57;11.00;;;6.50;46.30;;;;;;5013356;28;20604;-71
2022/03/22 07:26:33;;;;;;;19.40;11.47;;;6.50;46.00;;;;;;5006384;28;20251;-70
2022/03/22 07:28:58;;;;;;;18.67;12.53;;;6.50;45.80;;;;;;5014523;28;20226;-70
2022/03/22 07:31:24;;;;;;;15.50;10.67;;;6.70;46.10;;;;;;5012067;28;20271;-71
2022/03/22 07:33:49;;;;;;;17.33;10.93;;;6.70;45.80;;;;;;5021907;28;20970;-71
2022/03/22 07:36:15;;;;;;;14.97;11.07;;;6.70;45.40;;;;;;5011164;28;20680;-71
2022/03/22 07:38:41;;;;;;;17.80;10.70;;;6.70;45.00;;;;;;5005250;28;20227;-70
2022/03/22 07:41:07;;;;;;;17.83;10.40;;;6.80;45.40;;;;;;5018122;28;20232;-70
2022/03/22 07:43:33;;;;;;;14.27;10.53;;;6.90;44.90;;;;;;5012731;28;20202;-71
2022/03/22 07:45:58;;;;;;;12.97;11.03;;;7.00;44.30;;;;;;5010537;28;20196;-71
2022/03/22 07:48:24;;;;;;;15.03;10.47;;;7.10;44.10;;;;;;5013393;28;20208;-75
2022/03/22 07:53:34;;;;;;;17.03;11.40;;;7.20;43.50;;;;;;5012410;28;20246;-72
2022/03/22 07:55:59;;;;;;;14.53;10.83;;;7.20;44.20;;;;;;5021872;28;20642;-73
2022/03/22 07:58:25;;;;;;;16.80;10.60;;;7.40;44.00;;;;;;5016495;28;20204;-72
2022/03/22 08:00:51;;;;;;;18.53;10.93;;;7.50;43.70;;;;;;5020234;28;20197;-73
2022/03/22 08:03:18;;;;;;;15.50;11.20;;;7.50;43.10;;;;;;5016717;28;20203;-71
2022/03/22 08:05:48;;;;;;;16.23;11.03;;;7.50;43.20;;;;;;5022791;28;20195;-70
2022/03/22 08:08:14;;;;;;;16.47;12.43;;;7.50;43.00;;;;;;5018542;28;20804;-72
2022/03/22 08:10:40;;;;;;;14.77;10.90;;;7.60;43.10;;;;;;5006819;28;20199;-71
2022/03/22 08:13:08;;;;;;;20.60;11.40;;;7.60;43.00;;;;;;5020149;28;20422;-72
2022/03/22 08:15:34;;;;;;;14.73;11.20;;;7.70;42.80;;;;;;5026500;28;20584;-73
2022/03/22 08:18:03;;;;;;;18.67;11.63;;;7.80;42.30;;;;;;5005317;28;20200;-72
2022/03/22 08:20:30;;;;;;;14.00;11.00;;;7.80;42.30;;;;;;5020985;28;20726;-73
2022/03/22 08:23:02;;;;;;;16.70;11.07;;;7.90;42.30;;;;;;5019778;28;20209;-71
2022/03/22 08:25:33;;;;;;;13.33;10.20;;;8.10;42.20;;;;;;5008128;28;20223;-73
2022/03/22 08:28:01;;;;;;;18.47;10.83;;;8.30;41.90;;;;;;5012776;28;20224;-72
2022/03/22 08:30:28;;;;;;;15.73;12.60;;;8.30;42.00;;;;;;5013934;28;20207;-73
2022/03/22 08:32:56;;;;;;;14.33;11.07;;;8.30;42.20;;;;;;5018654;28;20192;-74
2022/03/22 08:35:26;;;;;;;17.57;11.43;;;8.30;42.00;;;;;;5021874;28;20290;-73
2022/03/22 08:37:56;;;;;;;16.23;11.50;;;8.30;42.20;;;;;;5019253;28;20211;-74
2022/03/22 08:40:23;;;;;;;15.90;10.97;;;8.40;41.90;;;;;;5016803;28;20195;-75
2022/03/22 08:42:52;;;;;;;20.53;12.63;;;8.50;42.00;;;;;;5013737;28;20207;-74
2022/03/22 08:45:19;;;;;;;16.37;12.13;;;8.60;41.50;;;;;;5017780;28;20226;-74
2022/03/22 08:47:47;;;;;;;16.53;10.63;;;8.60;41.80;;;;;;5024076;28;20211;-74
2022/03/22 08:50:18;;;;;;;17.20;11.30;;;8.90;41.10;;;;;;5022874;28;20179;-74
2022/03/22 08:52:44;;;;;;;17.90;10.67;;;8.90;41.00;;;;;;5020788;28;20192;-74
2022/03/22 08:55:17;;;;;;;15.77;9.93;;;8.90;41.30;;;;;;5010986;28;20218;-74
2022/03/22 08:57:46;;;;;;;14.00;10.70;;;9.00;41.20;;;;;;5016839;28;20192;-74
2022/03/22 09:00:16;;;;;;;14.10;10.00;;;9.20;41.00;;;;;;5017461;28;20169;-76
2022/03/22 09:02:44;;;;;;;13.20;10.67;;;9.10;41.00;;;;;;5017364;28;20260;-73
2022/03/22 09:07:58;;;;;;;14.23;10.73;;;9.20;40.60;;;;;;4989122;28;20719;-69
2022/03/22 09:10:29;;;;;;;14.57;10.03;;;9.20;40.50;;;;;;5005996;28;20819;-69
2022/03/22 09:12:55;;;;;;;19.50;10.70;;;9.30;40.90;;;;;;5014522;28;20580;-70
2022/03/22 09:15:25;;;;;;;16.60;11.30;;;9.40;41.30;;;;;;5016070;28;20201;-72
2022/03/22 09:17:54;;;;;;;15.50;11.20;;;9.70;40.90;;;;;;5016025;28;20206;-71
2022/03/22 09:20:20;;;;;;;16.30;9.10;;;9.90;40.80;;;;;;5021942;28;20180;-67
2022/03/22 09:22:48;;;;;;;20.60;11.03;;;10.00;39.80;;;;;;5016138;28;20205;-74
2022/03/22 09:25:16;;;;;;;13.63;10.40;;;10.00;39.80;;;;;;5014665;28;20694;-73
2022/03/22 09:27:42;;;;;;;19.53;11.23;;;10.00;40.20;;;;;;5015069;28;20290;-67
2022/03/22 09:30:10;;;;;;;12.73;10.10;;;10.00;40.00;;;;;;5024005;28;20173;-72
2022/03/22 09:32:36;;;;;;;11.03;9.80;;;10.10;39.20;;;;;;5012139;28;20284;-69
2022/03/22 09:35:06;;;;;;;13.73;10.77;;;10.20;39.70;;;;;;5025479;28;20211;-77
2022/03/22 09:37:34;;;;;;;16.47;11.40;;;10.10;40.30;;;;;;5009935;28;20210;-70
2022/03/22 09:40:00;;;;;;;15.87;11.47;;;10.10;40.60;;;;;;5010242;28;20192;-67
2022/03/22 09:42:27;;;;;;;12.17;10.57;;;10.30;39.10;;;;;;5012881;28;20205;-66
2022/03/22 09:44:53;;;;;;;14.50;9.90;;;10.50;38.80;;;;;;5019192;28;20217;-66
2022/03/22 09:47:19;;;;;;;13.77;9.50;;;10.40;38.00;;;;;;5012248;28;20263;-68
2022/03/22 09:49:45;;;;;;;16.83;10.53;;;10.50;38.40;;;;;;5018053;28;20179;-67
2022/03/22 09:52:12;;;;;;;12.17;9.43;;;10.40;37.70;;;;;;5012070;28;20187;-69
2022/03/22 09:54:39;;;;;;;13.90;9.73;;;10.60;38.00;;;;;;5018212;28;20265;-68
2022/03/22 09:57:05;;;;;;;10.77;9.67;;;10.70;37.70;;;;;;5010747;28;20194;-67
2022/03/22 09:59:35;;;;;;;13.03;10.07;;;10.90;37.20;;;;;;5017260;28;20200;-67
2022/03/22 10:02:02;;;;;;;13.00;9.50;;;11.00;37.30;;;;;;5023521;28;20198;-70
2022/03/22 10:04:42;;;;;;;10.67;9.00;;;11.10;37.20;;;;;;5020004;28;20238;-66
2022/03/22 10:07:16;;;;;;;15.37;9.40;;;11.20;38.10;;;;;;5018995;28;20264;-66
2022/03/22 10:09:49;;;;;;;12.73;8.87;;;11.30;36.60;;;;;;5022909;28;20274;-67
2022/03/22 10:12:25;;;;;;;16.10;9.23;;;11.50;37.00;;;;;;5019724;28;20195;-66
2022/03/22 10:14:50;;;;;;;13.43;9.43;;;11.50;36.40;;;;;;5022436;28;20186;-67
2022/03/22 10:17:18;;;;;;;13.20;9.77;;;11.50;35.50;;;;;;5022987;28;20194;-67
2022/03/22 10:19:49;;;;;;;11.53;8.93;;;11.70;35.50;;;;;;5021130;28;20210;-65
2022/03/22 10:22:16;;;;;;;13.57;8.70;;;11.70;35.30;;;;;;5011182;28;20196;-66
2022/03/22 10:24:51;;;;;;;9.50;8.27;;;11.80;35.40;;;;;;5019310;28;20218;-66
2022/03/22 10:27:28;;;;;;;12.30;9.93;;;12.00;35.00;;;;;;5018149;28;20304;-66
2022/03/22 10:29:56;;;;;;;10.77;7.70;;;12.10;34.40;;;;;;5008480;28;20219;-66
2022/03/22 10:32:33;;;;;;;10.20;7.73;;;12.20;35.00;;;;;;5009840;28;20206;-66
2022/03/22 10:35:13;;;;;;;13.10;9.63;;;12.30;34.30;;;;;;5015673;28;20199;-66
2022/03/22 10:37:42;;;;;;;10.63;8.47;;;12.30;34.70;;;;;;5014094;28;20202;-66
2022/03/22 10:40:26;;;;;;;11.90;8.87;;;12.20;34.80;;;;;;5012696;28;20614;-65
2022/03/22 10:42:55;;;;;;;10.00;8.87;;;12.60;34.70;;;;;;5006641;28;20202;-65
2022/03/22 10:45:21;;;;;;;11.70;9.47;;;12.70;33.20;;;;;;5017780;28;20670;-70
2022/03/22 10:47:47;;;;;;;11.23;8.43;;;12.90;34.50;;;;;;5015785;28;20259;-68
2022/03/22 10:50:13;;;;;;;12.73;9.50;;;13.20;33.60;;;;;;5020881;28;20662;-75
2022/03/22 10:52:53;;;;;;;12.33;9.10;;;13.40;34.70;;;;;;5016880;28;20238;-71
2022/03/22 10:55:21;;;;;;;10.53;7.80;;;13.50;33.80;;;;;;5016858;28;20516;-69
2022/03/22 10:57:56;;;;;;;9.43;8.00;;;13.60;32.20;;;;;;5014944;28;21061;-72
2022/03/22 11:00:22;;;;;;;12.87;8.27;;;13.70;31.50;;;;;;5017126;28;20175;-69
2022/03/22 11:02:51;;;;;;;16.30;8.27;;;13.80;30.70;;;;;;5017167;28;20218;-71
2022/03/22 11:05:20;;;;;;;10.47;8.57;;;13.90;31.10;;;;;;5020902;28;20188;-70
2022/03/22 11:07:50;;;;;;;10.47;8.83;;;14.10;31.40;;;;;;5025037;28;20212;-75
2022/03/22 11:10:18;;;;;;;12.60;9.43;;;14.10;31.20;;;;;;5015397;28;20214;-71
2022/03/22 11:12:44;;;;;;;10.27;8.57;;;14.30;31.60;;;;;;5018791;28;20200;-71
2022/03/22 11:15:12;;;;;;;9.67;7.20;;;14.40;30.60;;;;;;5021503;28;20176;-71
2022/03/22 11:17:39;;;;;;;11.27;8.43;;;14.50;29.70;;;;;;5021517;28;20271;-72
2022/03/22 11:20:09;;;;;;;11.17;8.20;;;14.60;29.50;;;;;;5014734;28;20237;-75
2022/03/22 11:22:34;;;;;;;10.47;8.43;;;14.80;30.20;;;;;;5009232;28;20224;-75
2022/03/22 11:25:11;;;;;;;10.17;9.10;;;14.90;30.40;;;;;;5015077;28;20302;-72
2022/03/22 11:27:38;;;;;;;8.83;7.93;;;15.20;31.00;;;;;;5019632;28;20207;-74
2022/03/22 11:30:08;;;;;;;9.97;8.23;;;15.20;29.90;;;;;;5018355;28;20181;-74
2022/03/22 11:35:24;;;;;;;10.60;7.90;;;15.60;29.80;;;;;;5023451;28;20225;-73
2022/03/22 11:38:01;;;;;;;10.47;8.37;;;15.80;29.90;;;;;;5018084;28;20200;-74
2022/03/22 11:43:13;;;;;;;12.70;8.33;;;16.10;29.60;;;;;;5018114;28;20737;-73
2022/03/22 11:45:47;;;;;;;10.00;8.03;;;16.40;29.60;;;;;;5019433;28;20207;-72
2022/03/22 11:48:12;;;;;;;9.60;7.10;;;16.60;28.90;;;;;;5013618;28;20236;-72
2022/03/22 11:50:41;;;;;;;11.87;7.63;;;16.90;29.40;;;;;;5018673;28;20551;-74
2022/03/22 11:53:16;;;;;;;9.00;7.97;;;17.10;29.90;;;;;;5012619;28;20239;-78
2022/03/22 11:55:41;;;;;;;11.10;8.30;;;17.30;29.80;;;;;;5017149;28;20223;-70
2022/03/22 11:58:11;;;;;;;8.77;7.40;;;17.20;28.30;;;;;;5011933;28;20259;-70
2022/03/22 12:00:51;;;;;;;8.97;8.07;;;17.20;28.20;;;;;;5022155;28;20291;-70
2022/03/22 12:03:20;;;;;;;10.13;7.97;;;17.40;29.20;;;;;;5014476;28;20206;-70
2022/03/22 12:05:46;;;;;;;10.53;8.37;;;17.60;29.40;;;;;;5007884;28;20192;-70
2022/03/22 12:08:19;;;;;;;10.77;9.10;;;17.70;28.70;;;;;;5017891;28;20234;-71
2022/03/22 12:10:49;;;;;;;8.67;7.73;;;17.70;28.60;;;;;;5012504;28;20210;-69
2022/03/22 12:13:15;;;;;;;8.43;7.63;;;17.70;28.40;;;;;;5010128;28;20214;-70
2022/03/22 12:15:41;;;;;;;8.50;7.60;;;17.50;27.60;;;;;;5011214;28;20184;-68
2022/03/22 12:18:11;;;;;;;8.63;7.90;;;17.20;28.20;;;;;;5009833;28;20680;-75
2022/03/22 12:20:37;;;;;;;9.93;8.13;;;17.50;28.00;;;;;;5014753;28;20201;-71
2022/03/22 12:23:03;;;;;;;11.57;8.93;;;17.80;28.10;;;;;;5007321;28;20220;-71
2022/03/22 12:25:35;;;;;;;7.40;6.60;;;18.10;28.20;;;;;;5023391;28;20228;-71
2022/03/22 12:28:08;;;;;;;9.10;8.00;;;18.30;26.80;;;;;;5011789;28;20678;-73
2022/03/22 12:30:39;;;;;;;8.70;7.90;;;18.60;28.20;;;;;;5025845;28;20184;-75
2022/03/22 12:33:07;;;;;;;7.63;6.90;;;18.60;26.80;;;;;;5008095;28;20229;-70
2022/03/22 12:35:34;;;;;;;10.27;6.70;;;18.80;26.90;;;;;;5013487;28;20203;-71
2022/03/22 12:38:00;;;;;;;8.63;7.20;;;19.00;26.80;;;;;;5006927;28;20680;-67
2022/03/22 12:40:27;;;;;;;8.13;7.30;;;19.30;26.80;;;;;;5009051;28;20274;-66
2022/03/22 12:42:55;;;;;;;9.60;7.80;;;19.30;26.40;;;;;;5004489;28;20209;-67
2022/03/22 12:45:21;;;;;;;10.67;7.07;;;19.30;26.60;;;;;;5005939;28;20255;-67
2022/03/22 12:47:48;;;;;;;7.77;7.10;;;19.60;26.10;;;;;;5007041;28;20221;-65
2022/03/22 12:50:16;;;;;;;8.63;7.67;;;19.70;25.80;;;;;;5010942;28;20395;-66
2022/03/22 12:52:42;;;;;;;9.03;8.13;;;19.90;26.50;;;;;;5004366;28;20206;-67
2022/03/22 12:55:09;;;;;;;7.57;6.80;;;19.70;26.00;;;;;;5009700;28;20219;-66
2022/03/22 12:57:37;;;;;;;7.20;6.47;;;19.90;26.50;;;;;;4997595;28;20198;-65
2022/03/22 13:00:05;;;;;;;8.13;6.70;;;19.90;25.30;;;;;;5004882;28;20208;-66
2022/03/22 13:02:31;;;;;;;8.57;7.00;;;20.10;25.30;;;;;;5021083;28;20236;-66
2022/03/22 13:04:56;;;;;;;7.80;5.67;;;20.30;25.60;;;;;;5007661;28;20656;-65
2022/03/22 13:07:27;;;;;;;7.33;5.87;;;20.30;24.90;;;;;;5020221;28;20250;-73
2022/03/22 13:12:42;;;;;;;6.93;6.27;;;21.00;25.00;;;;;;5004959;28;20330;-67